Dades meteomassalio
Diari Summary for Juny 7, 2017 Units:  Metric    English   Both
« Previous Day
Next Day »
Diari Semanal Mensual Anual Personalitzat
  Maxima: Minima: Mijana:
Temperatura: -17.8 °C -10.8 °C -6.7 °C
Rosada: -17.8 °C -13.5 °C -11.6 °C
Humitat: Humidity % 35 % 59 %
Velocitat del vent: 0 km/h 0 km/h 16.1 km/h
Racha vent: 0 km/h - -
Vent:- - SSW
Pressio: 0 hPa 34452.6 hPa -
Pluja: 0 mm    
Historical Graphs
 
 
Tabular Data for Juny 7, 2017
Time Temperature Dew Point Pressure Wind Wind Speed Wind Gust Humidity Rainfall Rate (Hourly) solar Conditions
-17.8 °C -17.8 °C 0 hPa Calm     Humidity % 0 mm SolarRadiationWatts/m^2 W/m2 Conditions
00:01 -8.1 °C -11.7 °C 34520.3 hPa WNW 9 km/h 9 km/h 66 % 0 mm 0.0 W/m2 CLR
00:06 -8.2 °C -11.7 °C 34520.3 hPa WNW 17.9 km/h 17.9 km/h 66 % 0 mm 0.0 W/m2 CLR
00:11 -8.2 °C -11.8 °C 34520.3 hPa WNW 11.9 km/h 11.9 km/h 66 % 0 mm 0.0 W/m2 CLR
00:16 -8.2 °C -11.9 °C 34533.8 hPa West 11.9 km/h 11.9 km/h 65 % 0 mm 0.0 W/m2 CLR
00:21 -8.3 °C -11.9 °C 34533.8 hPa WNW 17.9 km/h 17.9 km/h 65 % 0 mm 0.0 W/m2 CLR
00:26 -8.3 °C -12.1 °C 34533.8 hPa NW 29.8 km/h 29.8 km/h 64 % 0 mm 0.0 W/m2 CLR
00:31 -8.3 °C -12.2 °C 34533.8 hPa WNW 29.8 km/h 29.8 km/h 64 % 0 mm 0.0 W/m2 CLR
00:37 -8.4 °C -12.1 °C 34533.8 hPa WNW 32.8 km/h 32.8 km/h 65 % 0 mm 0.0 W/m2 CLR
00:42 -8.4 °C -12.1 °C 34533.8 hPa WNW 32.8 km/h 32.8 km/h 65 % 0 mm 0.0 W/m2 CLR
00:47 -8.4 °C -12.1 °C 34533.8 hPa WNW 32.8 km/h 32.8 km/h 65 % 0 mm 0.0 W/m2 CLR
00:52 -8.4 °C -12.1 °C 34533.8 hPa West 20.9 km/h 20.9 km/h 65 % 0 mm 0.0 W/m2 CLR
00:57 -8.4 °C -11.8 °C 34544 hPa West 17.9 km/h 17.9 km/h 67 % 0 mm 0.0 W/m2 CLR
01:02 -8.5 °C -11.9 °C 34544 hPa West 32.8 km/h 32.8 km/h 67 % 0 mm 0.0 W/m2 CLR
01:07 -8.5 °C -11.9 °C 34544 hPa West 29.8 km/h 29.8 km/h 67 % 0 mm 0.0 W/m2 CLR
01:12 -8.6 °C -12 °C 34544 hPa West 32.8 km/h 32.8 km/h 67 % 0 mm 0.0 W/m2 CLR
01:17 -8.6 °C -12 °C 34544 hPa WSW 29.8 km/h 29.8 km/h 67 % 0 mm 0.0 W/m2 CLR
01:22 -8.6 °C -12.1 °C 34544 hPa WNW 35.7 km/h 35.7 km/h 67 % 0 mm 0.0 W/m2 CLR
01:27 -8.7 °C -12.1 °C 34544 hPa West 29.8 km/h 29.8 km/h 67 % 0 mm 0.0 W/m2 CLR
01:32 -8.7 °C -12.3 °C 34544 hPa West 38.8 km/h 38.8 km/h 66 % 0 mm 0.0 W/m2 CLR
01:37 -8.7 °C -12.3 °C 34533.8 hPa West 35.7 km/h 35.7 km/h 66 % 0 mm 0.0 W/m2 CLR
01:42 -8.8 °C -12.4 °C 34544 hPa West 32.8 km/h 32.8 km/h 65 % 0 mm 0.0 W/m2 CLR
01:47 -8.8 °C -12.5 °C 34544 hPa West 32.8 km/h 32.8 km/h 65 % 0 mm 0.0 W/m2 CLR
01:52 -8.8 °C -12.7 °C 34544 hPa West 32.8 km/h 32.8 km/h 64 % 0 mm 0.0 W/m2 CLR
01:57 -8.9 °C -12.8 °C 34544 hPa West 38.8 km/h 38.8 km/h 63 % 0 mm 0.0 W/m2 CLR
02:02 -8.9 °C -13 °C 34544 hPa WSW 29.8 km/h 29.8 km/h 62 % 0 mm 0.0 W/m2 CLR
02:07 -9 °C -13 °C 34544 hPa WSW 15 km/h 15 km/h 62 % 0 mm 0.0 W/m2 CLR
02:12 -9 °C -13.2 °C 34554.1 hPa WSW 18.2 km/h 18.2 km/h 61 % 0 mm 0.0 W/m2 CLR
02:17 -9.1 °C -13.1 °C 34554.1 hPa West 12.9 km/h 12.9 km/h 62 % 0 mm 0.0 W/m2 CLR
02:22 -9.1 °C -12.9 °C 34554.1 hPa West 12.9 km/h 12.9 km/h 64 % 0 mm 0.0 W/m2 CLR
02:27 -9.2 °C -12.8 °C 34554.1 hPa WNW 15 km/h 15 km/h 65 % 0 mm 0.0 W/m2 CLR
02:32 -9.2 °C -12.7 °C 34554.1 hPa West 5.1 km/h 5.1 km/h 66 % 0 mm 0.0 W/m2 CLR
02:37 -9.2 °C -12.6 °C 34554.1 hPa WSW 18.2 km/h 18.2 km/h 67 % 0 mm 0.0 W/m2 CLR
02:42 -9.2 °C -12.6 °C 34554.1 hPa West 15 km/h 15 km/h 67 % 0 mm 0.0 W/m2 CLR
02:47 -9.2 °C -12.6 °C 34554.1 hPa West 20.9 km/h 20.9 km/h 67 % 0 mm 0.0 W/m2 CLR
02:52 -9.2 °C -12.4 °C 34554.1 hPa WNW 33.6 km/h 33.6 km/h 68 % 0 mm 0.0 W/m2 CLR
02:57 -9.3 °C -12.7 °C 34554.1 hPa West 29.8 km/h 29.8 km/h 67 % 0 mm 0.0 W/m2 CLR
03:02 -9.3 °C -12.7 °C 34554.1 hPa WNW 32.8 km/h 32.8 km/h 67 % 0 mm 0.0 W/m2 CLR
03:07 -9.3 °C -12.8 °C 34554.1 hPa West 20.9 km/h 20.9 km/h 66 % 0 mm 0.0 W/m2 CLR
03:12 -9.3 °C -12.7 °C 34554.1 hPa WSW 15 km/h 15 km/h 67 % 0 mm 0.0 W/m2 CLR
03:17 -9.3 °C -12.9 °C 34554.1 hPa West 17.9 km/h 17.9 km/h 66 % 0 mm 0.0 W/m2 CLR
03:22 -9.4 °C -12.9 °C 34554.1 hPa WSW 15 km/h 15 km/h 66 % 0 mm 0.0 W/m2 CLR
03:27 -9.4 °C -12.9 °C 34554.1 hPa West 11.9 km/h 11.9 km/h 66 % 0 mm 0.0 W/m2 CLR
03:32 -9.4 °C -12.9 °C 34554.1 hPa WSW 29.8 km/h 29.8 km/h 66 % 0 mm 0.0 W/m2 CLR
03:37 -9.4 °C -13.1 °C 34554.1 hPa West 15 km/h 15 km/h 65 % 0 mm 0.0 W/m2 CLR
03:42 -9.5 °C -13.1 °C 34554.1 hPa West 31.1 km/h 31.1 km/h 65 % 0 mm 0.0 W/m2 CLR
03:47 -9.5 °C -13.1 °C 34567.7 hPa WSW 10.3 km/h 10.3 km/h 65 % 0 mm 0.0 W/m2 CLR
03:52 -9.6 °C -13.2 °C 34567.7 hPa West 9 km/h 9 km/h 65 % 0 mm 0.0 W/m2 CLR
03:57 -9.6 °C -13.1 °C 34567.7 hPa SW 29.8 km/h 29.8 km/h 66 % 0 mm 0.0 W/m2 CLR
04:02 -9.6 °C -13.2 °C 34567.7 hPa WSW 15 km/h 15 km/h 65 % 0 mm 0.0 W/m2 CLR
04:07 -9.7 °C -13.2 °C 34567.7 hPa WSW 17.9 km/h 17.9 km/h 66 % 0 mm 0.0 W/m2 CLR
04:17 -9.8 °C -13.2 °C 34567.7 hPa WNW 20.9 km/h 20.9 km/h 67 % 0 mm 0.0 W/m2 CLR
04:22 -9.8 °C -13.2 °C 34567.7 hPa West 20.9 km/h 20.9 km/h 67 % 0 mm 0.0 W/m2 CLR
04:27 -9.8 °C -13.3 °C 34567.7 hPa West 25.9 km/h 25.9 km/h 66 % 0 mm 0.0 W/m2 CLR
04:32 -9.9 °C -13.4 °C 34567.7 hPa West 15.6 km/h 15.6 km/h 66 % 0 mm 0.0 W/m2 CLR
04:37 -9.9 °C -13.4 °C 34567.7 hPa WSW 29.8 km/h 29.8 km/h 66 % 0 mm 0.0 W/m2 CLR
04:42 -9.9 °C -13.4 °C 34577.8 hPa WSW 29.8 km/h 29.8 km/h 66 % 0 mm 0.0 W/m2 CLR
04:47 -9.9 °C -13.4 °C 34577.8 hPa WSW 26.9 km/h 26.9 km/h 66 % 0 mm 0.0 W/m2 CLR
04:52 -9.9 °C -13.3 °C 34577.8 hPa West 6 km/h 6 km/h 67 % 0 mm 0.0 W/m2 CLR
04:57 -10.1 °C -13.4 °C 34577.8 hPa WSW 11.9 km/h 11.9 km/h 67 % 0 mm 0.0 W/m2 CLR
05:02 -10.1 °C -13.4 °C 34577.8 hPa WSW 29.8 km/h 29.8 km/h 67 % 0 mm 0.0 W/m2 CLR
05:07 -10.1 °C -13.4 °C 34591.4 hPa WSW 15 km/h 15 km/h 67 % 0 mm 0.0 W/m2 CLR
05:12 -10.2 °C -13.4 °C 34577.8 hPa WSW 7.7 km/h 7.7 km/h 68 % 0 mm 0.0 W/m2 CLR
05:17 -10.2 °C -13.4 °C 34591.4 hPa WSW 7.7 km/h 7.7 km/h 68 % 0 mm 0.0 W/m2 CLR
05:22 -10.3 °C -13.5 °C 34591.4 hPa WSW 15 km/h 15 km/h 68 % 0 mm 0.0 W/m2 CLR
05:27 -10.3 °C -13.3 °C 34591.4 hPa WSW 9 km/h 9 km/h 70 % 0 mm 0.0 W/m2 CLR
05:32 -10.4 °C -13.4 °C 34591.4 hPa WSW 10.3 km/h 10.3 km/h 70 % 0 mm 0.0 W/m2 CLR
05:37 -10.4 °C -13.4 °C 34591.4 hPa WSW 17.9 km/h 17.9 km/h 70 % 0 mm 0.0 W/m2 CLR
05:42 -10.4 °C -13.5 °C 34591.4 hPa WSW 29.8 km/h 29.8 km/h 69 % 0 mm 0.0 W/m2 CLR
05:47 -10.4 °C -13.4 °C 34591.4 hPa WSW 15 km/h 15 km/h 69 % 0 mm 0.0 W/m2 CLR
05:52 -10.4 °C -13.4 °C 34591.4 hPa West 11.9 km/h 11.9 km/h 69 % 0 mm 0.0 W/m2 CLR
05:57 -10.3 °C -13.4 °C 34591.4 hPa WSW 17.9 km/h 17.9 km/h 69 % 0 mm 0.0 W/m2 CLR
06:02 -10.3 °C -13.4 °C 34591.4 hPa WSW 20.9 km/h 20.9 km/h 69 % 0 mm 0.0 W/m2 CLR
06:07 -10.3 °C -13.4 °C 34591.4 hPa WSW 6 km/h 6 km/h 69 % 0 mm 0.0 W/m2 CLR
06:08 -10.3 °C -13.4 °C 34591.4 hPa WSW 11.9 km/h 11.9 km/h 69 % 0 mm 0.0 W/m2 CLR
06:13 -10.4 °C -13.4 °C 34601.5 hPa WSW 15.6 km/h 15.6 km/h 70 % 0 mm 0.0 W/m2 CLR
06:18 -10.4 °C -13.4 °C 34601.5 hPa WSW 18.2 km/h 18.2 km/h 70 % 0 mm 0.0 W/m2 OVC
06:23 -10.4 °C -13.3 °C 34601.5 hPa West 15.6 km/h 15.6 km/h 71 % 0 mm 0.0 W/m2 OVC
06:28 -10.6 °C -13.4 °C 34601.5 hPa WSW 23.8 km/h 23.8 km/h 71 % 0 mm 0.0 W/m2 OVC
06:33 -10.6 °C -13.4 °C 34601.5 hPa WSW 20.9 km/h 20.9 km/h 72 % 0 mm 5.0 W/m2 OVC
06:38 -10.7 °C -13.4 °C 34601.5 hPa WSW 15.6 km/h 15.6 km/h 72 % 0 mm 7.0 W/m2 BKN
06:43 -10.7 °C -13.4 °C 34601.5 hPa WSW 15 km/h 15 km/h 73 % 0 mm 11.0 W/m2 BKN
06:48 -10.8 °C -13.4 °C 34601.5 hPa WSW 15 km/h 15 km/h 73 % 0 mm 14.0 W/m2 BKN
06:53 -10.8 °C -13.4 °C 34601.5 hPa WSW 11.9 km/h 11.9 km/h 73 % 0 mm 16.0 W/m2 BKN
06:58 -10.8 °C -13.3 °C 34611.7 hPa WSW 15 km/h 15 km/h 74 % 0 mm 19.0 W/m2 BKN
06:59 -10.8 °C -13.3 °C 34611.7 hPa WSW 15.6 km/h 15.6 km/h 74 % 0 mm 19.0 W/m2 BKN
07:04 -10.8 °C -13.3 °C 34611.7 hPa WSW 15 km/h 15 km/h 74 % 0 mm 25.0 W/m2 BKN
07:09 -10.7 °C -13.3 °C 34611.7 hPa Calm     73 % 0 mm 35.0 W/m2 BKN
07:14 -10.7 °C -13.3 °C 34611.7 hPa SW 15 km/h 15 km/h 73 % 0 mm 44.0 W/m2 BKN
07:19 -10.6 °C -13.2 °C 34611.7 hPa SW 9 km/h 9 km/h 73 % 0 mm 54.0 W/m2 SCT
07:24 -10.5 °C -13.3 °C 34611.7 hPa WSW 11.9 km/h 11.9 km/h 72 % 0 mm 67.0 W/m2 FEW
07:29 -10.4 °C -13.2 °C 34611.7 hPa SW 6 km/h 6 km/h 72 % 0 mm 81.0 W/m2 FEW
07:34 -10.4 °C -13.2 °C 34611.7 hPa SW 12.9 km/h 12.9 km/h 71 % 0 mm 95.0 W/m2 FEW
07:39 -10.3 °C -13.3 °C 34611.7 hPa WSW 20.9 km/h 20.9 km/h 70 % 0 mm 107.0 W/m2 CLR
07:44 -10.2 °C -13.3 °C 34611.7 hPa WSW 17.9 km/h 17.9 km/h 69 % 0 mm 123.0 W/m2 CLR
07:49 -10.1 °C -13.2 °C 34611.7 hPa West 29.8 km/h 29.8 km/h 69 % 0 mm 139.0 W/m2 CLR
07:54 -10 °C -13.1 °C 34611.7 hPa WSW 15.6 km/h 15.6 km/h 69 % 0 mm 158.0 W/m2 CLR
07:59 -9.9 °C -13.2 °C 34611.7 hPa West 20.8 km/h 20.8 km/h 68 % 0 mm 174.0 W/m2 CLR
08:04 -9.8 °C -13.3 °C 34625.2 hPa WSW 15 km/h 15 km/h 66 % 0 mm 193.0 W/m2 CLR
08:09 -9.8 °C -13.3 °C 34625.2 hPa West 29.8 km/h 29.8 km/h 66 % 0 mm 209.0 W/m2 CLR
08:14 -9.7 °C -13.2 °C 34625.2 hPa WSW 17.9 km/h 17.9 km/h 66 % 0 mm 225.0 W/m2 CLR
08:19 -9.7 °C -13.3 °C 34625.2 hPa WSW 23.8 km/h 23.8 km/h 65 % 0 mm 241.0 W/m2 CLR
08:24 -9.6 °C -13.2 °C 34625.2 hPa SW 23.8 km/h 23.8 km/h 65 % 0 mm 255.0 W/m2 CLR
08:29 -9.6 °C -13.2 °C 34625.2 hPa West 15 km/h 15 km/h 65 % 0 mm 272.0 W/m2 CLR
08:34 -9.5 °C -13.3 °C 34625.2 hPa West 20.9 km/h 20.9 km/h 64 % 0 mm 279.0 W/m2 CLR
08:39 -9.4 °C -13 °C 34625.2 hPa WSW 18.2 km/h 18.2 km/h 65 % 0 mm 302.0 W/m2 CLR
08:44 -9.3 °C -13.2 °C 34625.2 hPa WSW 20.9 km/h 20.9 km/h 63 % 0 mm 316.0 W/m2 CLR
08:49 -9.3 °C -13.2 °C 34625.2 hPa NW 29.8 km/h 29.8 km/h 63 % 0 mm 336.0 W/m2 CLR
08:54 -9.3 °C -13.3 °C 34625.2 hPa West 28.5 km/h 28.5 km/h 62 % 0 mm 352.0 W/m2 CLR
08:59 -9.2 °C -13.1 °C 34625.2 hPa West 38.8 km/h 38.8 km/h 63 % 0 mm 366.0 W/m2 CLR
09:04 -9.1 °C -13 °C 34625.2 hPa West 29.8 km/h 29.8 km/h 63 % 0 mm 380.0 W/m2 CLR
09:09 -9 °C -12.9 °C 34625.2 hPa NW 29.8 km/h 29.8 km/h 63 % 0 mm 396.0 W/m2 CLR
09:14 -8.9 °C -13.1 °C 34625.2 hPa West 32.8 km/h 32.8 km/h 61 % 0 mm 413.0 W/m2 CLR
09:19 -8.9 °C -13.1 °C 34625.2 hPa WNW 26.9 km/h 26.9 km/h 61 % 0 mm 429.0 W/m2 CLR
09:24 -8.8 °C -12.8 °C 34635.4 hPa WNW 29.8 km/h 29.8 km/h 62 % 0 mm 443.0 W/m2 CLR
09:29 -8.7 °C -13 °C 34635.4 hPa West 29.8 km/h 29.8 km/h 60 % 0 mm 461.0 W/m2 CLR
09:35 -8.6 °C -12.8 °C 34635.4 hPa West 41.7 km/h 41.7 km/h 61 % 0 mm 475.0 W/m2 CLR
09:40 -8.6 °C -12.9 °C 34635.4 hPa West 29.8 km/h 29.8 km/h 60 % 0 mm 489.0 W/m2 CLR
09:45 -8.4 °C -12.8 °C 34635.4 hPa West 38.8 km/h 38.8 km/h 60 % 0 mm 504.0 W/m2 CLR
09:50 -8.4 °C -12.8 °C 34635.4 hPa West 15.6 km/h 15.6 km/h 59 % 0 mm 519.0 W/m2 CLR
09:55 -8.4 °C -12.8 °C 34635.4 hPa NW 29.8 km/h 29.8 km/h 59 % 0 mm 536.0 W/m2 CLR
09:56 -8.4 °C -12.9 °C 34635.4 hPa WNW 29.8 km/h 29.8 km/h 59 % 0 mm 538.0 W/m2 CLR
10:01 -8.3 °C -12.7 °C 34635.4 hPa NW 15.6 km/h 15.6 km/h 60 % 0 mm 552.0 W/m2 CLR
10:06 -8.2 °C -12.8 °C 34635.4 hPa WNW 35.7 km/h 35.7 km/h 58 % 0 mm 564.0 W/m2 CLR
10:11 -8.2 °C -12.9 °C 34635.4 hPa West 29.8 km/h 29.8 km/h 58 % 0 mm 578.0 W/m2 CLR
10:16 -8.2 °C -12.6 °C 34635.4 hPa NNW 35.7 km/h 35.7 km/h 60 % 0 mm 594.0 W/m2 CLR
10:21 -8.1 °C -12.6 °C 34635.4 hPa West 9 km/h 9 km/h 59 % 0 mm 608.0 W/m2 CLR
10:22 -8.1 °C -12.6 °C 34635.4 hPa WNW 11.9 km/h 11.9 km/h 59 % 0 mm 612.0 W/m2 CLR
10:28 -8.1 °C -12.7 °C 34635.4 hPa NW 31.1 km/h 31.1 km/h 58 % 0 mm 628.0 W/m2 CLR
10:33 -7.9 °C -12.6 °C 34635.4 hPa WNW 33.6 km/h 33.6 km/h 58 % 0 mm 640.0 W/m2 CLR
10:38 -7.9 °C -12.6 °C 34635.4 hPa NW 32.8 km/h 32.8 km/h 58 % 0 mm 656.0 W/m2 CLR
10:43 -7.9 °C -12.6 °C 34635.4 hPa West 20.8 km/h 20.8 km/h 58 % 0 mm 668.0 W/m2 CLR
10:48 -7.9 °C -12.6 °C 34625.2 hPa West 12.9 km/h 12.9 km/h 58 % 0 mm 677.0 W/m2 CLR
10:53 -7.8 °C -12.4 °C 34625.2 hPa WNW 17.9 km/h 17.9 km/h 58 % 0 mm 689.0 W/m2 CLR
10:58 -7.7 °C -12.4 °C 34625.2 hPa WSW 15 km/h 15 km/h 57 % 0 mm 703.0 W/m2 CLR
11:03 -7.6 °C -12.1 °C 34625.2 hPa NW 20.8 km/h 20.8 km/h 59 % 0 mm 717.0 W/m2 CLR
11:08 -7.3 °C -12.2 °C 34625.2 hPa NNW 23.3 km/h 23.3 km/h 57 % 0 mm 728.0 W/m2 CLR
11:13 -7.2 °C -12.2 °C 34625.2 hPa West 17.9 km/h 17.9 km/h 56 % 0 mm 740.0 W/m2 CLR
11:18 -7.2 °C -12 °C 34625.2 hPa NW 26.9 km/h 26.9 km/h 57 % 0 mm 751.0 W/m2 CLR
11:23 -7.2 °C -12.1 °C 34611.7 hPa NW 3.1 km/h 3.1 km/h 57 % 0 mm 761.0 W/m2 CLR
11:28 -7.1 °C -12 °C 34611.7 hPa NW 9 km/h 9 km/h 57 % 0 mm 772.0 W/m2 CLR
11:38 -6.9 °C -12.1 °C 34611.7 hPa NW 9 km/h 9 km/h 55 % 0 mm 793.0 W/m2 CLR
11:43 -6.9 °C -12.1 °C 34611.7 hPa WSW 20.9 km/h 20.9 km/h 55 % 0 mm 805.0 W/m2 CLR
11:48 -6.9 °C -11.9 °C 34611.7 hPa WSW 9 km/h 9 km/h 56 % 0 mm 814.0 W/m2 CLR
11:53 -6.7 °C -11.9 °C 34611.7 hPa West 15 km/h 15 km/h 55 % 0 mm 821.0 W/m2 CLR
11:58 -6.7 °C -11.8 °C 34611.7 hPa SW 17.9 km/h 17.9 km/h 55 % 0 mm 831.0 W/m2 CLR
12:03 -6.6 °C -11.8 °C 34611.7 hPa WNW 15.6 km/h 15.6 km/h 55 % 0 mm 840.0 W/m2 CLR
12:08 -6.6 °C -11.7 °C 34611.7 hPa West 12.9 km/h 12.9 km/h 55 % 0 mm 851.0 W/m2 CLR
12:13 -6.4 °C -11.6 °C 34601.5 hPa Calm     55 % 0 mm 856.0 W/m2 CLR
12:18 -6.2 °C -11.8 °C 34601.5 hPa SSW 7.7 km/h 7.7 km/h 53 % 0 mm 860.0 W/m2 CLR
12:23 -6.1 °C -11.4 °C 34601.5 hPa West 11.9 km/h 11.9 km/h 54 % 0 mm 870.0 W/m2 CLR
12:28 -6.2 °C -11.7 °C 34601.5 hPa West 10.3 km/h 10.3 km/h 53 % 0 mm 882.0 W/m2 CLR
12:33 -6.1 °C -11.6 °C 34601.5 hPa West 3.1 km/h   53 % 0 mm 884.0 W/m2 CLR
12:38 -6.1 °C -11.9 °C 34591.4 hPa Calm     51 % 0 mm 893.0 W/m2 CLR
12:43 -5.9 °C -11.5 °C 34591.4 hPa Calm     53 % 0 mm 902.0 W/m2 CLR
12:48 -5.7 °C -11.8 °C 34591.4 hPa WSW 11.9 km/h 11.9 km/h 50 % 0 mm 907.0 W/m2 CLR
12:53 -5.7 °C -11.4 °C 34591.4 hPa WSW 12.9 km/h 12.9 km/h 52 % 0 mm 912.0 W/m2 CLR
12:58 -5.7 °C -11.7 °C 34577.8 hPa SW 20.9 km/h 20.9 km/h 50 % 0 mm 918.0 W/m2 CLR
13:03 -5.7 °C -11.7 °C 34577.8 hPa SW 9 km/h 9 km/h 50 % 0 mm 923.0 W/m2 CLR
13:08 -5.4 °C -11.2 °C 34577.8 hPa WSW 3.1 km/h 3.1 km/h 52 % 0 mm 928.0 W/m2 CLR
13:13 -5.2 °C -11.3 °C 34577.8 hPa WSW 9 km/h 9 km/h 50 % 0 mm 933.0 W/m2 CLR
13:18 -4.9 °C -11.1 °C 34577.8 hPa NNW 23.8 km/h 23.8 km/h 50 % 0 mm 933.0 W/m2 CLR
13:23 -4.9 °C -11.4 °C 34577.8 hPa WNW 15 km/h 15 km/h 48 % 0 mm 935.0 W/m2 CLR
13:28 -4.9 °C -11.3 °C 34577.8 hPa NNE 9 km/h   48 % 0 mm 940.0 W/m2 CLR
13:33 -4.8 °C -11.2 °C 34567.7 hPa North 9 km/h 9 km/h 48 % 0 mm 942.0 W/m2 CLR
13:38 -4.9 °C -11.5 °C 34567.7 hPa Calm     47 % 0 mm 944.0 W/m2 CLR
13:43 -4.9 °C -11.4 °C 34567.7 hPa East 11.9 km/h 11.9 km/h 48 % 0 mm 946.0 W/m2 CLR
13:48 -4.9 °C -11.3 °C 34567.7 hPa Calm     48 % 0 mm 947.0 W/m2 CLR
13:53 -4.8 °C -11.2 °C 34554.1 hPa Calm     48 % 0 mm 949.0 W/m2 CLR
13:58 -4.5 °C -11 °C 34554.1 hPa West 5.1 km/h 5.1 km/h 48 % 0 mm 951.0 W/m2 CLR
14:03 -4.3 °C -11 °C 34554.1 hPa SE 9 km/h 9 km/h 47 % 0 mm 949.0 W/m2 CLR
14:08 -4.3 °C -11 °C 34554.1 hPa ENE 15 km/h 15 km/h 47 % 0 mm 949.0 W/m2 CLR
14:13 -4.3 °C -10.8 °C 34554.1 hPa Calm     48 % 0 mm 951.0 W/m2 CLR
14:18 -4.1 °C -10.8 °C 34544 hPa SE 9 km/h 9 km/h 47 % 0 mm 949.0 W/m2 CLR
14:23 -4 °C -11.1 °C 34544 hPa South 9 km/h   45 % 0 mm 949.0 W/m2 CLR
14:28 -3.8 °C -11.1 °C 34544 hPa ESE 11.9 km/h 11.9 km/h 44 % 0 mm 946.0 W/m2 CLR
14:33 -4.1 °C -11.3 °C 34544 hPa ENE 11.9 km/h   44 % 0 mm 942.0 W/m2 CLR
14:38 -4.2 °C -11.3 °C 34533.8 hPa Calm     45 % 0 mm 939.0 W/m2 CLR
14:43 -4.1 °C -11 °C 34533.8 hPa Calm     46 % 0 mm 933.0 W/m2 CLR
14:48 -4 °C -11.3 °C 34533.8 hPa Calm     44 % 0 mm 932.0 W/m2 CLR
14:53 -3.9 °C -11.2 °C 34533.8 hPa Calm     44 % 0 mm 928.0 W/m2 CLR
14:58 -3.7 °C -11.2 °C 34533.8 hPa Calm     43 % 0 mm 925.0 W/m2 CLR
15:03 -3.7 °C -10.9 °C 34520.3 hPa ESE 9 km/h 9 km/h 44 % 0 mm 919.0 W/m2 CLR
15:08 -3.6 °C -11.1 °C 34520.3 hPa ESE 12.9 km/h 12.9 km/h 43 % 0 mm 916.0 W/m2 CLR
15:13 -3.5 °C -11 °C 34520.3 hPa ENE 20.9 km/h 20.9 km/h 43 % 0 mm 909.0 W/m2 CLR
15:18 -3.4 °C -11.2 °C 34520.3 hPa Calm     42 % 0 mm 904.0 W/m2 CLR
15:23 -3.3 °C -10.7 °C 34520.3 hPa East 23.8 km/h 23.8 km/h 44 % 0 mm 896.0 W/m2 CLR
15:28 -3.4 °C -11.1 °C 34510.1 hPa NNE 6 km/h   42 % 0 mm 891.0 W/m2 CLR
15:33 -3.3 °C -11.2 °C 34510.1 hPa North 20.9 km/h   41 % 0 mm 886.0 W/m2 CLR
15:38 -3.2 °C -10.9 °C 34510.1 hPa Calm     42 % 0 mm 884.0 W/m2 CLR
15:43 -2.9 °C -10.9 °C 34510.1 hPa ENE 15.6 km/h 15.6 km/h 41 % 0 mm 874.0 W/m2 CLR
15:48 -3 °C -10.9 °C 34510.1 hPa ENE 17.9 km/h 17.9 km/h 41 % 0 mm 865.0 W/m2 CLR
15:53 -3.1 °C -11.3 °C 34510.1 hPa NNE 15 km/h   40 % 0 mm 854.0 W/m2 CLR
15:58 -3.1 °C -11.1 °C 34510.1 hPa NE 11.9 km/h 11.9 km/h 41 % 0 mm 846.0 W/m2 CLR
16:03 -3 °C -10.8 °C 34510.1 hPa ENE 9 km/h 9 km/h 42 % 0 mm 838.0 W/m2 CLR
16:08 -3 °C -11.4 °C 34510.1 hPa ENE 20.9 km/h 20.9 km/h 39 % 0 mm 828.0 W/m2 CLR
16:13 -2.9 °C -10.9 °C 34496.6 hPa NE 9 km/h 9 km/h 41 % 0 mm 819.0 W/m2 CLR
16:18 -2.9 °C -11.1 °C 34496.6 hPa ENE 20.9 km/h 20.9 km/h 40 % 0 mm 812.0 W/m2 CLR
16:23 -2.8 °C -10.8 °C 34496.6 hPa North 12.9 km/h 12.9 km/h 41 % 0 mm 803.0 W/m2 CLR
16:24 -2.8 °C -10.8 °C 34496.6 hPa North 17.9 km/h 17.9 km/h 41 % 0 mm 802.0 W/m2 CLR
16:29 -2.7 °C -10.9 °C 34496.6 hPa NNE 20.9 km/h 20.9 km/h 40 % 0 mm 789.0 W/m2 CLR
16:34 -2.8 °C -11.2 °C 34496.6 hPa NE 17.9 km/h 17.9 km/h 39 % 0 mm 779.0 W/m2 CLR
16:39 -2.8 °C -11.2 °C 34496.6 hPa NNE 17.9 km/h 17.9 km/h 39 % 0 mm 768.0 W/m2 CLR
16:44 -2.7 °C -10.9 °C 34496.6 hPa NNE 20.9 km/h 20.9 km/h 40 % 0 mm 759.0 W/m2 CLR
16:49 -2.7 °C -11.3 °C 34486.4 hPa NE 11.9 km/h 11.9 km/h 38 % 0 mm 747.0 W/m2 CLR
16:54 -2.7 °C -11.4 °C 34486.4 hPa North 11.9 km/h 11.9 km/h 38 % 0 mm 737.0 W/m2 CLR
16:59 -2.7 °C -11.4 °C 34486.4 hPa NE 11.9 km/h 11.9 km/h 38 % 0 mm 722.0 W/m2 CLR
17:04 -2.8 °C -11.2 °C 34486.4 hPa NE 15 km/h 15 km/h 39 % 0 mm 710.0 W/m2 CLR
17:09 -2.7 °C -11.3 °C 34476.3 hPa NNE 17.9 km/h 17.9 km/h 38 % 0 mm 700.0 W/m2 CLR
17:14 -2.6 °C -11 °C 34476.3 hPa ENE 17.9 km/h 17.9 km/h 39 % 0 mm 686.0 W/m2 CLR
17:19 -2.6 °C -11.2 °C 34476.3 hPa NE 17.9 km/h 17.9 km/h 38 % 0 mm 673.0 W/m2 CLR
17:24 -2.4 °C -10.9 °C 34476.3 hPa NE 9 km/h 9 km/h 39 % 0 mm 657.0 W/m2 CLR
17:29 -2.4 °C -11.1 °C 34476.3 hPa ENE 20.9 km/h 20.9 km/h 38 % 0 mm 640.0 W/m2 CLR
17:34 -2.4 °C -11.3 °C 34476.3 hPa North 20.9 km/h 20.9 km/h 37 % 0 mm 631.0 W/m2 CLR
17:39 -2.4 °C -11.3 °C 34476.3 hPa ENE 20.9 km/h 20.9 km/h 37 % 0 mm 619.0 W/m2 CLR
17:44 -2.3 °C -11 °C 34462.7 hPa North 3.1 km/h   38 % 0 mm 603.0 W/m2 CLR
17:49 -2.3 °C -11.2 °C 34462.7 hPa North 17.9 km/h 17.9 km/h 37 % 0 mm 589.0 W/m2 CLR
17:54 -2.3 °C -11.2 °C 34462.7 hPa NE 9 km/h   37 % 0 mm 575.0 W/m2 CLR
17:55 -2.3 °C -11.2 °C 34462.7 hPa NE 10.3 km/h 10.3 km/h 37 % 0 mm 571.0 W/m2 CLR
18:00 -2.1 °C -11.3 °C 34462.7 hPa NNW 15 km/h 15 km/h 36 % 0 mm 557.0 W/m2 CLR
18:05 -2.1 °C -11.5 °C 34462.7 hPa Calm     35 % 0 mm 545.0 W/m2 CLR
18:10 -2.1 °C -11.5 °C 34462.7 hPa NE 23.8 km/h 23.8 km/h 35 % 0 mm 529.0 W/m2 CLR
18:15 -2.1 °C -11.3 °C 34462.7 hPa NE 17.9 km/h 17.9 km/h 36 % 0 mm 513.0 W/m2 CLR
18:20 -2.1 °C -11.3 °C 34462.7 hPa North 3.1 km/h   36 % 0 mm 501.0 W/m2 CLR
18:25 -2.3 °C -10.3 °C 34462.7 hPa ENE 23.8 km/h 23.8 km/h 41 % 0 mm 483.0 W/m2 CLR
18:30 -2.5 °C -10.3 °C 34452.6 hPa East 15 km/h 15 km/h 42 % 0 mm 466.0 W/m2 CLR
18:35 -2.6 °C -10.2 °C 34452.6 hPa ENE 11.9 km/h 11.9 km/h 43 % 0 mm 448.0 W/m2 CLR
18:40 -2.8 °C -10.6 °C 34452.6 hPa ESE 15 km/h 15 km/h 42 % 0 mm 432.0 W/m2 CLR
18:45 -2.9 °C -10.4 °C 34452.6 hPa Calm     43 % 0 mm 417.0 W/m2 CLR
18:50 -2.8 °C -10.4 °C 34452.6 hPa ESE 11.9 km/h 11.9 km/h 43 % 0 mm 401.0 W/m2 CLR
18:55 -2.8 °C -10.4 °C 34452.6 hPa ENE 15 km/h 15 km/h 43 % 0 mm 387.0 W/m2 CLR
19:00 -2.8 °C -10.4 °C 34452.6 hPa Calm     43 % 0 mm 371.0 W/m2 CLR
19:05 -2.8 °C -10.4 °C 34452.6 hPa East 15 km/h 15 km/h 43 % 0 mm 359.0 W/m2 CLR
19:10 -2.9 °C -10.1 °C 34452.6 hPa East 15 km/h 15 km/h 45 % 0 mm 343.0 W/m2 CLR
19:15 -3.1 °C -10.2 °C 34452.6 hPa ESE 15 km/h 15 km/h 45 % 0 mm 323.0 W/m2 CLR
19:20 -3.2 °C -10.3 °C 34452.6 hPa SE 15 km/h 15 km/h 45 % 0 mm 308.0 W/m2 CLR
19:23 -3.2 °C -10.3 °C 34452.6 hPa SE 9 km/h 9 km/h 45 % 0 mm 297.0 W/m2 CLR
19:28 -3.2 °C -10.3 °C 34452.6 hPa SE 10.3 km/h 10.3 km/h 45 % 0 mm 283.0 W/m2 CLR
19:33 -3.3 °C -9.7 °C 34452.6 hPa ESE 31.1 km/h 31.1 km/h 49 % 0 mm 267.0 W/m2 CLR
19:38 -3.4 °C -9.7 °C 34452.6 hPa SE 20.9 km/h 20.9 km/h 50 % 0 mm 251.0 W/m2 CLR
19:43 -3.5 °C -9.8 °C 34452.6 hPa SE 23.8 km/h 23.8 km/h 50 % 0 mm 237.0 W/m2 CLR
19:48 -3.6 °C -9.6 °C 34452.6 hPa ESE 23.8 km/h 23.8 km/h 51 % 0 mm 218.0 W/m2 CLR
19:53 -3.6 °C -9.6 °C 34452.6 hPa ESE 26.9 km/h 26.9 km/h 51 % 0 mm 202.0 W/m2 CLR
19:58 -3.7 °C -9.7 °C 34452.6 hPa SE 23.8 km/h 23.8 km/h 51 % 0 mm 185.0 W/m2 CLR
20:03 -3.7 °C -9.7 °C 34452.6 hPa SE 11.9 km/h 11.9 km/h 51 % 0 mm 169.0 W/m2 CLR
20:08 -3.7 °C -9.6 °C 34452.6 hPa East 26.9 km/h 26.9 km/h 52 % 0 mm 149.0 W/m2 CLR
20:09 -3.7 °C -9.4 °C 34452.6 hPa ESE 23.8 km/h 23.8 km/h 53 % 0 mm 148.0 W/m2 CLR
20:14 -3.8 °C -9.3 °C 34452.6 hPa SE 15 km/h 15 km/h 54 % 0 mm 132.0 W/m2 CLR
20:19 -3.8 °C -9.3 °C 34452.6 hPa SE 20.9 km/h 20.9 km/h 54 % 0 mm 116.0 W/m2 CLR
20:24 -3.8 °C -9.4 °C 34452.6 hPa ESE 11.9 km/h 11.9 km/h 54 % 0 mm 98.0 W/m2 CLR
20:29 -3.9 °C -9.5 °C 34462.7 hPa East 26.9 km/h 26.9 km/h 54 % 0 mm 84.0 W/m2 CLR
20:34 -4 °C -9.2 °C 34462.7 hPa East 17.9 km/h 17.9 km/h 56 % 0 mm 72.0 W/m2 FEW
20:39 -4.1 °C -8.9 °C 34462.7 hPa ESE 18.2 km/h 18.2 km/h 58 % 0 mm 62.0 W/m2 SCT
20:44 -4.2 °C -8.8 °C 34462.7 hPa SE 20.9 km/h 20.9 km/h 60 % 0 mm 35.0 W/m2 BKN
20:49 -4.3 °C -8.9 °C 34462.7 hPa ESE 11.9 km/h 11.9 km/h 60 % 0 mm 35.0 W/m2 BKN
20:54 -4.3 °C -8.8 °C 34462.7 hPa SE 9 km/h 9 km/h 61 % 0 mm 28.0 W/m2 BKN
20:59 -4.4 °C -8.7 °C 34462.7 hPa ESE 11.9 km/h 11.9 km/h 62 % 0 mm 21.0 W/m2 BKN
21:04 -4.6 °C -8.7 °C 34462.7 hPa East 15 km/h 15 km/h 63 % 0 mm 16.0 W/m2 BKN
21:09 -4.7 °C -8.7 °C 34462.7 hPa ESE 18.2 km/h 18.2 km/h 64 % 0 mm 12.0 W/m2 BKN
21:14 -4.8 °C -8.7 °C 34462.7 hPa SE 17.9 km/h 17.9 km/h 65 % 0 mm 11.0 W/m2 BKN
21:19 -4.9 °C -8.7 °C 34462.7 hPa ESE 17.9 km/h 17.9 km/h 66 % 0 mm 9.0 W/m2 BKN
21:24 -5.1 °C -8.6 °C 34462.7 hPa East 15 km/h 15 km/h 67 % 0 mm 7.0 W/m2 BKN
21:29 -5.1 °C -8.6 °C 34476.3 hPa ESE 15 km/h 15 km/h 68 % 0 mm 0.0 W/m2 OVC
21:30 -5.1 °C -8.6 °C 34476.3 hPa ESE 15 km/h 15 km/h 68 % 0 mm 0.0 W/m2 OVC
21:35 -5.2 °C -8.7 °C 34476.3 hPa Calm     68 % 0 mm 0.0 W/m2 OVC
21:40 -5.3 °C -8.7 °C 34476.3 hPa Calm     69 % 0 mm 0.0 W/m2 OVC
21:45 -5.4 °C -8.6 °C 34476.3 hPa SE 7.7 km/h 7.7 km/h 70 % 0 mm 0.0 W/m2 CLR
21:50 -5.6 °C -8.7 °C 34486.4 hPa SE 11.9 km/h 11.9 km/h 70 % 0 mm 0.0 W/m2 CLR
21:55 -5.7 °C -8.7 °C 34486.4 hPa SE 17.9 km/h 17.9 km/h 71 % 0 mm 0.0 W/m2 CLR
22:00 -5.8 °C -8.7 °C 34486.4 hPa East 15 km/h 15 km/h 72 % 0 mm 0.0 W/m2 CLR
22:05 -5.8 °C -8.8 °C 34486.4 hPa East 9 km/h   72 % 0 mm 0.0 W/m2 CLR
22:10 -5.9 °C -8.7 °C 34486.4 hPa East 7.7 km/h 7.7 km/h 73 % 0 mm 0.0 W/m2 CLR
22:15 -5.9 °C -8.7 °C 34486.4 hPa East 7.7 km/h 7.7 km/h 73 % 0 mm 0.0 W/m2 CLR
22:20 -6 °C -8.7 °C 34486.4 hPa East 9 km/h 9 km/h 74 % 0 mm 0.0 W/m2 CLR
22:25 -6.1 °C -8.7 °C 34486.4 hPa East 7.7 km/h 7.7 km/h 75 % 0 mm 0.0 W/m2 CLR
22:30 -6.2 °C -8.8 °C 34486.4 hPa Calm     75 % 0 mm 0.0 W/m2 CLR
22:35 -6.3 °C -8.7 °C 34496.6 hPa ESE 6 km/h   76 % 0 mm 0.0 W/m2 CLR
22:40 -6.4 °C -8.7 °C 34496.6 hPa East 9 km/h 9 km/h 77 % 0 mm 0.0 W/m2 CLR
22:45 -6.4 °C -8.8 °C 34496.6 hPa East 9 km/h 9 km/h 77 % 0 mm 0.0 W/m2 CLR
22:50 -6.5 °C -8.7 °C 34486.4 hPa ESE 11.9 km/h 11.9 km/h 78 % 0 mm 0.0 W/m2 CLR
22:55 -6.5 °C -8.7 °C 34496.6 hPa Calm     78 % 0 mm 0.0 W/m2 CLR
23:00 -6.5 °C -8.7 °C 34496.6 hPa Calm     78 % 0 mm 0.0 W/m2 CLR
23:05 -6.6 °C -8.7 °C 34496.6 hPa Calm     78 % 0 mm 0.0 W/m2 CLR
23:10 -6.6 °C -8.8 °C 34496.6 hPa Calm     78 % 0 mm 0.0 W/m2 CLR
23:15 -6.6 °C -8.8 °C 34496.6 hPa Calm     78 % 0 mm 0.0 W/m2 CLR
23:20 -6.7 °C -8.8 °C 34496.6 hPa Calm     79 % 0 mm 0.0 W/m2 CLR
23:25 -6.7 °C -8.8 °C 34496.6 hPa Calm     79 % 0 mm 0.0 W/m2 CLR
23:30 -6.8 °C -8.8 °C 34496.6 hPa Calm     80 % 0 mm 0.0 W/m2 CLR
23:35 -6.8 °C -8.8 °C 34496.6 hPa Calm     80 % 0 mm 0.0 W/m2 CLR
23:40 -6.9 °C -8.8 °C 34496.6 hPa Calm     81 % 0 mm 0.0 W/m2 CLR
23:45 -6.9 °C -8.8 °C 34486.4 hPa Calm     81 % 0 mm 0.0 W/m2 CLR
23:50 -7 °C -8.8 °C 34486.4 hPa Calm     81 % 0 mm 0.0 W/m2 CLR
23:55 -7 °C -8.8 °C 34486.4 hPa Calm     81 % 0 mm 0.0 W/m2 CLR
Lo Temps de Massalio
Compliments of Weather Underground - 1.25 mb